sensor_id;sensor_type;location;lat;lon;timestamp;P1;durP1;ratioP1;P2;durP2;ratioP2
3953;SDS011;1991;48.682;9.030;2022-07-10T00:00:31;2.83;;;2.63;;
3953;SDS011;1991;48.682;9.030;2022-07-10T00:02:58;3.58;;;2.55;;
3953;SDS011;1991;48.682;9.030;2022-07-10T00:05:24;5.35;;;2.70;;
3953;SDS011;1991;48.682;9.030;2022-07-10T00:07:51;4.18;;;2.83;;
3953;SDS011;1991;48.682;9.030;2022-07-10T00:10:17;4.20;;;2.95;;
3953;SDS011;1991;48.682;9.030;2022-07-10T00:12:44;3.90;;;2.58;;
3953;SDS011;1991;48.682;9.030;2022-07-10T00:15:13;3.42;;;2.55;;
3953;SDS011;1991;48.682;9.030;2022-07-10T00:17:40;2.95;;;2.50;;
3953;SDS011;1991;48.682;9.030;2022-07-10T00:20:07;3.83;;;2.80;;
3953;SDS011;1991;48.682;9.030;2022-07-10T00:22:33;3.20;;;2.45;;
3953;SDS011;1991;48.682;9.030;2022-07-10T00:25:00;2.67;;;2.47;;
3953;SDS011;1991;48.682;9.030;2022-07-10T00:27:29;3.63;;;2.63;;
3953;SDS011;1991;48.682;9.030;2022-07-10T00:29:55;3.08;;;2.58;;
3953;SDS011;1991;48.682;9.030;2022-07-10T00:32:21;5.18;;;3.15;;
3953;SDS011;1991;48.682;9.030;2022-07-10T00:34:47;3.08;;;2.40;;
3953;SDS011;1991;48.682;9.030;2022-07-10T00:37:13;3.58;;;2.80;;
3953;SDS011;1991;48.682;9.030;2022-07-10T00:39:39;2.85;;;2.58;;
3953;SDS011;1991;48.682;9.030;2022-07-10T00:44:38;3.65;;;2.70;;
3953;SDS011;1991;48.682;9.030;2022-07-10T00:47:05;2.95;;;2.58;;
3953;SDS011;1991;48.682;9.030;2022-07-10T00:49:34;4.60;;;2.80;;
3953;SDS011;1991;48.682;9.030;2022-07-10T00:52:02;2.75;;;2.55;;
3953;SDS011;1991;48.682;9.030;2022-07-10T00:54:30;8.98;;;3.00;;
3953;SDS011;1991;48.682;9.030;2022-07-10T00:56:57;3.25;;;2.47;;
3953;SDS011;1991;48.682;9.030;2022-07-10T00:59:23;3.92;;;3.05;;
3953;SDS011;1991;48.682;9.030;2022-07-10T01:01:50;4.38;;;2.85;;
3953;SDS011;1991;48.682;9.030;2022-07-10T01:04:16;3.80;;;3.10;;
3953;SDS011;1991;48.682;9.030;2022-07-10T01:06:42;2.90;;;2.45;;
3953;SDS011;1991;48.682;9.030;2022-07-10T01:09:08;4.10;;;2.60;;
3953;SDS011;1991;48.682;9.030;2022-07-10T01:11:34;3.45;;;3.00;;
3953;SDS011;1991;48.682;9.030;2022-07-10T01:14:01;3.15;;;2.78;;
3953;SDS011;1991;48.682;9.030;2022-07-10T01:16:27;3.47;;;2.85;;
3953;SDS011;1991;48.682;9.030;2022-07-10T01:18:54;4.00;;;2.75;;
3953;SDS011;1991;48.682;9.030;2022-07-10T01:21:27;3.40;;;3.10;;
3953;SDS011;1991;48.682;9.030;2022-07-10T01:23:57;5.80;;;3.03;;
3953;SDS011;1991;48.682;9.030;2022-07-10T01:26:24;3.28;;;2.95;;
3953;SDS011;1991;48.682;9.030;2022-07-10T01:28:53;4.47;;;3.05;;
3953;SDS011;1991;48.682;9.030;2022-07-10T01:31:20;3.50;;;3.20;;
3953;SDS011;1991;48.682;9.030;2022-07-10T01:33:52;3.55;;;3.25;;
3953;SDS011;1991;48.682;9.030;2022-07-10T01:36:18;6.88;;;3.75;;
3953;SDS011;1991;48.682;9.030;2022-07-10T01:38:45;3.80;;;3.40;;
3953;SDS011;1991;48.682;9.030;2022-07-10T01:41:11;4.72;;;3.25;;
3953;SDS011;1991;48.682;9.030;2022-07-10T01:43:37;4.25;;;3.47;;
3953;SDS011;1991;48.682;9.030;2022-07-10T01:46:07;6.60;;;3.05;;
3953;SDS011;1991;48.682;9.030;2022-07-10T01:48:33;3.65;;;3.20;;
3953;SDS011;1991;48.682;9.030;2022-07-10T01:50:58;5.85;;;3.22;;
3953;SDS011;1991;48.682;9.030;2022-07-10T01:53:24;6.43;;;3.67;;
3953;SDS011;1991;48.682;9.030;2022-07-10T01:55:49;7.07;;;4.05;;
3953;SDS011;1991;48.682;9.030;2022-07-10T01:58:15;4.70;;;4.30;;
3953;SDS011;1991;48.682;9.030;2022-07-10T02:00:41;4.40;;;4.00;;
3953;SDS011;1991;48.682;9.030;2022-07-10T02:03:06;7.65;;;4.10;;
3953;SDS011;1991;48.682;9.030;2022-07-10T02:05:50;4.30;;;3.90;;
3953;SDS011;1991;48.682;9.030;2022-07-10T02:08:16;6.18;;;5.32;;
3953;SDS011;1991;48.682;9.030;2022-07-10T02:10:41;4.82;;;4.20;;
3953;SDS011;1991;48.682;9.030;2022-07-10T02:13:07;5.13;;;4.63;;
3953;SDS011;1991;48.682;9.030;2022-07-10T02:15:34;5.68;;;4.97;;
3953;SDS011;1991;48.682;9.030;2022-07-10T02:18:00;6.88;;;4.68;;
3953;SDS011;1991;48.682;9.030;2022-07-10T02:20:26;4.85;;;4.35;;
3953;SDS011;1991;48.682;9.030;2022-07-10T02:22:51;5.35;;;4.85;;
3953;SDS011;1991;48.682;9.030;2022-07-10T02:25:17;6.93;;;5.50;;
3953;SDS011;1991;48.682;9.030;2022-07-10T02:27:42;8.73;;;5.68;;
3953;SDS011;1991;48.682;9.030;2022-07-10T02:30:08;7.53;;;5.45;;
3953;SDS011;1991;48.682;9.030;2022-07-10T02:32:34;6.22;;;5.63;;
3953;SDS011;1991;48.682;9.030;2022-07-10T02:34:59;7.03;;;6.32;;
3953;SDS011;1991;48.682;9.030;2022-07-10T02:37:25;6.72;;;5.78;;
3953;SDS011;1991;48.682;9.030;2022-07-10T02:39:51;7.13;;;6.45;;
3953;SDS011;1991;48.682;9.030;2022-07-10T02:42:16;7.15;;;6.45;;
3953;SDS011;1991;48.682;9.030;2022-07-10T02:44:42;7.65;;;6.72;;
3953;SDS011;1991;48.682;9.030;2022-07-10T02:47:07;7.90;;;5.97;;
3953;SDS011;1991;48.682;9.030;2022-07-10T02:49:33;8.18;;;6.90;;
3953;SDS011;1991;48.682;9.030;2022-07-10T02:51:58;7.28;;;6.28;;
3953;SDS011;1991;48.682;9.030;2022-07-10T02:54:24;8.60;;;7.80;;
3953;SDS011;1991;48.682;9.030;2022-07-10T02:56:50;9.23;;;8.25;;
3953;SDS011;1991;48.682;9.030;2022-07-10T02:59:16;9.98;;;9.07;;
3953;SDS011;1991;48.682;9.030;2022-07-10T03:01:43;9.23;;;8.40;;
3953;SDS011;1991;48.682;9.030;2022-07-10T03:04:09;9.10;;;8.30;;
3953;SDS011;1991;48.682;9.030;2022-07-10T03:06:34;10.40;;;8.80;;
3953;SDS011;1991;48.682;9.030;2022-07-10T03:09:00;9.80;;;8.90;;
3953;SDS011;1991;48.682;9.030;2022-07-10T03:11:26;11.57;;;9.77;;
3953;SDS011;1991;48.682;9.030;2022-07-10T03:13:51;12.30;;;11.10;;
3953;SDS011;1991;48.682;9.030;2022-07-10T03:16:17;11.00;;;9.98;;
3953;SDS011;1991;48.682;9.030;2022-07-10T03:18:42;10.98;;;9.88;;
3953;SDS011;1991;48.682;9.030;2022-07-10T03:21:08;11.73;;;10.68;;
3953;SDS011;1991;48.682;9.030;2022-07-10T03:23:33;12.70;;;11.50;;
3953;SDS011;1991;48.682;9.030;2022-07-10T03:26:03;11.68;;;10.60;;
3953;SDS011;1991;48.682;9.030;2022-07-10T03:28:29;13.23;;;10.88;;
3953;SDS011;1991;48.682;9.030;2022-07-10T03:30:56;11.82;;;10.73;;
3953;SDS011;1991;48.682;9.030;2022-07-10T03:33:21;13.15;;;11.23;;
3953;SDS011;1991;48.682;9.030;2022-07-10T03:35:47;12.38;;;11.15;;
3953;SDS011;1991;48.682;9.030;2022-07-10T03:38:13;11.48;;;10.27;;
3953;SDS011;1991;48.682;9.030;2022-07-10T03:40:39;12.55;;;11.27;;
3953;SDS011;1991;48.682;9.030;2022-07-10T03:43:04;12.93;;;10.85;;
3953;SDS011;1991;48.682;9.030;2022-07-10T03:45:30;11.50;;;10.32;;
3953;SDS011;1991;48.682;9.030;2022-07-10T03:47:55;11.27;;;10.20;;
3953;SDS011;1991;48.682;9.030;2022-07-10T03:50:21;12.88;;;10.32;;
3953;SDS011;1991;48.682;9.030;2022-07-10T03:52:47;11.32;;;10.23;;
3953;SDS011;1991;48.682;9.030;2022-07-10T03:55:12;10.68;;;9.57;;
3953;SDS011;1991;48.682;9.030;2022-07-10T03:57:38;12.40;;;10.18;;
3953;SDS011;1991;48.682;9.030;2022-07-10T04:00:22;10.48;;;9.38;;
3953;SDS011;1991;48.682;9.030;2022-07-10T04:02:48;9.88;;;8.90;;
3953;SDS011;1991;48.682;9.030;2022-07-10T04:05:18;11.20;;;9.65;;
3953;SDS011;1991;48.682;9.030;2022-07-10T04:07:44;10.98;;;9.40;;
3953;SDS011;1991;48.682;9.030;2022-07-10T04:10:09;11.00;;;9.60;;
3953;SDS011;1991;48.682;9.030;2022-07-10T04:12:35;10.98;;;9.88;;
3953;SDS011;1991;48.682;9.030;2022-07-10T04:15:01;9.52;;;8.60;;
3953;SDS011;1991;48.682;9.030;2022-07-10T04:17:27;9.02;;;8.13;;
3953;SDS011;1991;48.682;9.030;2022-07-10T04:19:53;9.18;;;8.27;;
3953;SDS011;1991;48.682;9.030;2022-07-10T04:22:19;9.73;;;8.20;;
3953;SDS011;1991;48.682;9.030;2022-07-10T04:24:44;11.32;;;8.50;;
3953;SDS011;1991;48.682;9.030;2022-07-10T04:27:10;9.55;;;8.05;;
3953;SDS011;1991;48.682;9.030;2022-07-10T04:29:35;12.45;;;7.60;;
3953;SDS011;1991;48.682;9.030;2022-07-10T04:32:01;8.35;;;7.55;;
3953;SDS011;1991;48.682;9.030;2022-07-10T04:34:27;8.55;;;7.07;;
3953;SDS011;1991;48.682;9.030;2022-07-10T04:36:53;9.80;;;6.72;;
3953;SDS011;1991;48.682;9.030;2022-07-10T04:39:18;8.65;;;7.03;;
3953;SDS011;1991;48.682;9.030;2022-07-10T04:41:44;7.20;;;6.55;;
3953;SDS011;1991;48.682;9.030;2022-07-10T04:44:09;8.18;;;6.25;;
3953;SDS011;1991;48.682;9.030;2022-07-10T04:46:35;7.97;;;6.40;;
3953;SDS011;1991;48.682;9.030;2022-07-10T04:49:01;7.00;;;6.32;;
3953;SDS011;1991;48.682;9.030;2022-07-10T04:51:26;5.97;;;5.40;;
3953;SDS011;1991;48.682;9.030;2022-07-10T04:53:52;6.75;;;5.35;;
3953;SDS011;1991;48.682;9.030;2022-07-10T04:56:17;10.50;;;5.75;;
3953;SDS011;1991;48.682;9.030;2022-07-10T04:58:43;5.72;;;5.22;;
3953;SDS011;1991;48.682;9.030;2022-07-10T05:01:09;6.32;;;5.15;;
3953;SDS011;1991;48.682;9.030;2022-07-10T05:03:34;6.18;;;5.32;;
3953;SDS011;1991;48.682;9.030;2022-07-10T05:06:00;7.07;;;5.00;;
3953;SDS011;1991;48.682;9.030;2022-07-10T05:08:25;6.13;;;5.05;;
3953;SDS011;1991;48.682;9.030;2022-07-10T05:10:51;6.03;;;4.85;;
3953;SDS011;1991;48.682;9.030;2022-07-10T05:13:17;7.70;;;4.35;;
3953;SDS011;1991;48.682;9.030;2022-07-10T05:15:42;6.55;;;4.50;;
3953;SDS011;1991;48.682;9.030;2022-07-10T05:18:11;7.00;;;4.63;;
3953;SDS011;1991;48.682;9.030;2022-07-10T05:20:36;6.50;;;3.95;;
3953;SDS011;1991;48.682;9.030;2022-07-10T05:23:06;6.00;;;4.38;;
3953;SDS011;1991;48.682;9.030;2022-07-10T05:25:32;4.65;;;4.20;;
3953;SDS011;1991;48.682;9.030;2022-07-10T05:27:57;9.60;;;4.20;;
3953;SDS011;1991;48.682;9.030;2022-07-10T05:30:23;4.82;;;4.07;;
3953;SDS011;1991;48.682;9.030;2022-07-10T05:32:49;6.38;;;3.65;;
3953;SDS011;1991;48.682;9.030;2022-07-10T05:35:14;4.57;;;3.92;;
3953;SDS011;1991;48.682;9.030;2022-07-10T05:37:40;3.50;;;3.10;;
3953;SDS011;1991;48.682;9.030;2022-07-10T05:40:06;3.88;;;3.30;;
3953;SDS011;1991;48.682;9.030;2022-07-10T05:42:33;5.82;;;3.10;;
3953;SDS011;1991;48.682;9.030;2022-07-10T05:44:59;4.13;;;3.22;;
3953;SDS011;1991;48.682;9.030;2022-07-10T05:47:25;5.78;;;2.90;;
3953;SDS011;1991;48.682;9.030;2022-07-10T05:49:51;4.68;;;2.70;;
3953;SDS011;1991;48.682;9.030;2022-07-10T05:52:17;4.20;;;2.55;;
3953;SDS011;1991;48.682;9.030;2022-07-10T05:54:43;2.55;;;2.35;;
3953;SDS011;1991;48.682;9.030;2022-07-10T05:57:08;4.65;;;2.72;;
3953;SDS011;1991;48.682;9.030;2022-07-10T05:59:34;3.88;;;2.63;;
3953;SDS011;1991;48.682;9.030;2022-07-10T06:02:00;4.35;;;2.60;;
3953;SDS011;1991;48.682;9.030;2022-07-10T06:04:26;3.00;;;2.08;;
3953;SDS011;1991;48.682;9.030;2022-07-10T06:06:52;5.35;;;1.88;;
3953;SDS011;1991;48.682;9.030;2022-07-10T06:09:18;3.15;;;1.98;;
3953;SDS011;1991;48.682;9.030;2022-07-10T06:11:43;6.20;;;2.50;;
3953;SDS011;1991;48.682;9.030;2022-07-10T06:14:11;3.38;;;1.98;;
3953;SDS011;1991;48.682;9.030;2022-07-10T06:16:37;4.22;;;1.90;;
3953;SDS011;1991;48.682;9.030;2022-07-10T06:19:02;7.03;;;2.58;;
3953;SDS011;1991;48.682;9.030;2022-07-10T06:21:28;4.15;;;1.88;;
3953;SDS011;1991;48.682;9.030;2022-07-10T06:23:54;5.57;;;1.70;;
3953;SDS011;1991;48.682;9.030;2022-07-10T06:26:31;6.82;;;2.10;;
3953;SDS011;1991;48.682;9.030;2022-07-10T06:29:07;4.78;;;1.65;;
3953;SDS011;1991;48.682;9.030;2022-07-10T06:31:35;5.35;;;1.45;;
3953;SDS011;1991;48.682;9.030;2022-07-10T06:34:00;5.25;;;2.00;;
3953;SDS011;1991;48.682;9.030;2022-07-10T06:36:26;4.97;;;1.80;;
3953;SDS011;1991;48.682;9.030;2022-07-10T06:38:51;4.55;;;1.83;;
3953;SDS011;1991;48.682;9.030;2022-07-10T06:41:17;5.95;;;2.00;;
3953;SDS011;1991;48.682;9.030;2022-07-10T06:43:43;3.67;;;2.00;;
3953;SDS011;1991;48.682;9.030;2022-07-10T06:46:17;6.70;;;1.80;;
3953;SDS011;1991;48.682;9.030;2022-07-10T06:48:43;4.75;;;1.75;;
3953;SDS011;1991;48.682;9.030;2022-07-10T06:51:08;3.63;;;1.58;;
3953;SDS011;1991;48.682;9.030;2022-07-10T06:53:34;3.35;;;1.60;;
3953;SDS011;1991;48.682;9.030;2022-07-10T06:56:00;6.10;;;2.03;;
3953;SDS011;1991;48.682;9.030;2022-07-10T06:58:25;4.28;;;1.70;;
3953;SDS011;1991;48.682;9.030;2022-07-10T07:00:51;6.88;;;1.98;;
3953;SDS011;1991;48.682;9.030;2022-07-10T07:03:22;2.63;;;1.40;;
3953;SDS011;1991;48.682;9.030;2022-07-10T07:05:48;4.00;;;1.23;;
3953;SDS011;1991;48.682;9.030;2022-07-10T07:10:45;3.03;;;1.30;;
3953;SDS011;1991;48.682;9.030;2022-07-10T07:13:11;5.25;;;1.50;;
3953;SDS011;1991;48.682;9.030;2022-07-10T07:15:37;4.57;;;1.30;;
3953;SDS011;1991;48.682;9.030;2022-07-10T07:18:07;2.83;;;1.27;;
3953;SDS011;1991;48.682;9.030;2022-07-10T07:20:33;4.00;;;1.45;;
3953;SDS011;1991;48.682;9.030;2022-07-10T07:23:22;5.18;;;1.52;;
3953;SDS011;1991;48.682;9.030;2022-07-10T07:25:48;6.22;;;1.48;;
3953;SDS011;1991;48.682;9.030;2022-07-10T07:28:14;3.75;;;1.55;;
3953;SDS011;1991;48.682;9.030;2022-07-10T07:30:41;6.28;;;1.20;;
3953;SDS011;1991;48.682;9.030;2022-07-10T07:33:07;7.15;;;1.77;;
3953;SDS011;1991;48.682;9.030;2022-07-10T07:35:33;4.50;;;1.52;;
3953;SDS011;1991;48.682;9.030;2022-07-10T07:37:59;6.63;;;1.50;;
3953;SDS011;1991;48.682;9.030;2022-07-10T07:40:27;7.45;;;1.75;;
3953;SDS011;1991;48.682;9.030;2022-07-10T07:42:52;2.65;;;1.05;;
3953;SDS011;1991;48.682;9.030;2022-07-10T07:45:19;4.28;;;1.23;;
3953;SDS011;1991;48.682;9.030;2022-07-10T07:47:45;3.72;;;1.45;;
3953;SDS011;1991;48.682;9.030;2022-07-10T07:50:15;6.75;;;1.42;;
3953;SDS011;1991;48.682;9.030;2022-07-10T07:52:45;5.90;;;1.35;;
3953;SDS011;1991;48.682;9.030;2022-07-10T07:55:11;5.10;;;1.10;;
3953;SDS011;1991;48.682;9.030;2022-07-10T07:57:38;2.05;;;1.30;;
3953;SDS011;1991;48.682;9.030;2022-07-10T08:00:04;6.65;;;1.35;;
3953;SDS011;1991;48.682;9.030;2022-07-10T08:02:32;5.80;;;1.33;;
3953;SDS011;1991;48.682;9.030;2022-07-10T08:05:05;3.47;;;1.00;;
3953;SDS011;1991;48.682;9.030;2022-07-10T08:07:38;2.75;;;1.02;;
3953;SDS011;1991;48.682;9.030;2022-07-10T08:10:07;3.20;;;0.80;;
3953;SDS011;1991;48.682;9.030;2022-07-10T08:12:35;3.25;;;1.08;;
3953;SDS011;1991;48.682;9.030;2022-07-10T08:15:00;4.57;;;1.35;;
3953;SDS011;1991;48.682;9.030;2022-07-10T08:17:26;3.42;;;1.38;;
3953;SDS011;1991;48.682;9.030;2022-07-10T08:19:52;3.42;;;1.08;;
3953;SDS011;1991;48.682;9.030;2022-07-10T08:22:20;4.82;;;1.30;;
3953;SDS011;1991;48.682;9.030;2022-07-10T08:24:46;5.38;;;1.10;;
3953;SDS011;1991;48.682;9.030;2022-07-10T08:27:12;5.38;;;1.20;;
3953;SDS011;1991;48.682;9.030;2022-07-10T08:29:38;5.30;;;1.10;;
3953;SDS011;1991;48.682;9.030;2022-07-10T08:32:03;4.07;;;1.05;;
3953;SDS011;1991;48.682;9.030;2022-07-10T08:34:30;2.83;;;0.80;;
3953;SDS011;1991;48.682;9.030;2022-07-10T08:36:58;1.70;;;1.00;;
3953;SDS011;1991;48.682;9.030;2022-07-10T08:39:24;4.60;;;1.50;;
3953;SDS011;1991;48.682;9.030;2022-07-10T08:41:50;3.15;;;1.20;;
3953;SDS011;1991;48.682;9.030;2022-07-10T08:44:16;4.00;;;1.30;;
3953;SDS011;1991;48.682;9.030;2022-07-10T08:46:43;4.22;;;1.20;;
3953;SDS011;1991;48.682;9.030;2022-07-10T08:49:09;3.03;;;1.30;;
3953;SDS011;1991;48.682;9.030;2022-07-10T08:54:28;1.02;;;0.90;;
3953;SDS011;1991;48.682;9.030;2022-07-10T08:56:59;3.13;;;1.25;;
3953;SDS011;1991;48.682;9.030;2022-07-10T08:59:26;3.13;;;1.00;;
3953;SDS011;1991;48.682;9.030;2022-07-10T09:01:52;2.85;;;1.05;;
3953;SDS011;1991;48.682;9.030;2022-07-10T09:04:19;3.50;;;1.30;;
3953;SDS011;1991;48.682;9.030;2022-07-10T09:06:47;3.75;;;1.15;;
3953;SDS011;1991;48.682;9.030;2022-07-10T09:09:13;2.25;;;1.25;;
3953;SDS011;1991;48.682;9.030;2022-07-10T09:11:39;2.78;;;1.00;;
3953;SDS011;1991;48.682;9.030;2022-07-10T09:14:07;3.03;;;1.40;;
3953;SDS011;1991;48.682;9.030;2022-07-10T09:16:36;4.07;;;1.30;;
3953;SDS011;1991;48.682;9.030;2022-07-10T09:19:14;3.22;;;1.42;;
3953;SDS011;1991;48.682;9.030;2022-07-10T09:21:40;4.47;;;1.30;;
3953;SDS011;1991;48.682;9.030;2022-07-10T09:24:09;3.40;;;1.20;;
3953;SDS011;1991;48.682;9.030;2022-07-10T09:26:38;6.18;;;1.30;;
3953;SDS011;1991;48.682;9.030;2022-07-10T09:29:05;4.07;;;1.05;;
3953;SDS011;1991;48.682;9.030;2022-07-10T09:34:38;5.50;;;1.25;;
3953;SDS011;1991;48.682;9.030;2022-07-10T09:37:30;2.53;;;1.20;;
3953;SDS011;1991;48.682;9.030;2022-07-10T09:40:02;5.05;;;1.45;;
3953;SDS011;1991;48.682;9.030;2022-07-10T09:47:35;4.55;;;1.50;;
3953;SDS011;1991;48.682;9.030;2022-07-10T09:50:01;5.75;;;1.40;;
3953;SDS011;1991;48.682;9.030;2022-07-10T09:52:28;3.80;;;1.48;;
3953;SDS011;1991;48.682;9.030;2022-07-10T09:54:54;3.50;;;1.50;;
3953;SDS011;1991;48.682;9.030;2022-07-10T09:57:21;12.23;;;2.00;;
3953;SDS011;1991;48.682;9.030;2022-07-10T09:59:51;2.65;;;1.50;;
3953;SDS011;1991;48.682;9.030;2022-07-10T10:02:18;4.32;;;1.50;;
3953;SDS011;1991;48.682;9.030;2022-07-10T10:04:45;4.82;;;1.63;;
3953;SDS011;1991;48.682;9.030;2022-07-10T10:07:13;3.78;;;1.20;;
3953;SDS011;1991;48.682;9.030;2022-07-10T10:09:45;4.70;;;1.45;;
3953;SDS011;1991;48.682;9.030;2022-07-10T10:12:26;2.17;;;1.35;;
3953;SDS011;1991;48.682;9.030;2022-07-10T10:15:12;2.65;;;1.40;;
3953;SDS011;1991;48.682;9.030;2022-07-10T10:17:40;1.50;;;1.20;;
3953;SDS011;1991;48.682;9.030;2022-07-10T10:20:06;1.63;;;1.10;;
3953;SDS011;1991;48.682;9.030;2022-07-10T10:23:15;6.40;;;1.40;;
3953;SDS011;1991;48.682;9.030;2022-07-10T10:25:52;4.95;;;1.60;;
3953;SDS011;1991;48.682;9.030;2022-07-10T10:28:19;6.88;;;1.40;;
3953;SDS011;1991;48.682;9.030;2022-07-10T10:30:52;3.67;;;1.20;;
3953;SDS011;1991;48.682;9.030;2022-07-10T10:35:57;2.50;;;1.00;;
3953;SDS011;1991;48.682;9.030;2022-07-10T10:49:23;3.28;;;1.45;;
3953;SDS011;1991;48.682;9.030;2022-07-10T10:51:56;3.97;;;1.50;;
3953;SDS011;1991;48.682;9.030;2022-07-10T10:54:22;4.28;;;1.40;;
3953;SDS011;1991;48.682;9.030;2022-07-10T11:02:27;4.07;;;1.30;;
3953;SDS011;1991;48.682;9.030;2022-07-10T11:10:33;4.45;;;1.35;;
3953;SDS011;1991;48.682;9.030;2022-07-10T11:15:43;3.15;;;1.15;;
3953;SDS011;1991;48.682;9.030;2022-07-10T11:18:14;2.25;;;1.50;;
3953;SDS011;1991;48.682;9.030;2022-07-10T11:20:43;2.10;;;1.10;;
3953;SDS011;1991;48.682;9.030;2022-07-10T11:29:05;3.30;;;1.40;;
3953;SDS011;1991;48.682;9.030;2022-07-10T11:31:34;2.10;;;1.08;;
3953;SDS011;1991;48.682;9.030;2022-07-10T11:34:05;2.38;;;1.20;;
3953;SDS011;1991;48.682;9.030;2022-07-10T11:36:31;5.63;;;1.20;;
3953;SDS011;1991;48.682;9.030;2022-07-10T11:39:01;3.88;;;1.10;;
3953;SDS011;1991;48.682;9.030;2022-07-10T11:41:28;3.40;;;1.25;;
3953;SDS011;1991;48.682;9.030;2022-07-10T11:46:24;5.32;;;1.10;;
3953;SDS011;1991;48.682;9.030;2022-07-10T11:48:52;4.53;;;1.10;;
3953;SDS011;1991;48.682;9.030;2022-07-10T11:51:23;5.20;;;1.25;;
3953;SDS011;1991;48.682;9.030;2022-07-10T11:54:06;2.42;;;1.00;;
3953;SDS011;1991;48.682;9.030;2022-07-10T11:56:36;3.60;;;0.93;;
3953;SDS011;1991;48.682;9.030;2022-07-10T11:59:10;3.95;;;1.00;;
3953;SDS011;1991;48.682;9.030;2022-07-10T12:01:41;2.50;;;0.95;;
3953;SDS011;1991;48.682;9.030;2022-07-10T12:04:10;2.17;;;0.80;;
3953;SDS011;1991;48.682;9.030;2022-07-10T12:06:37;3.30;;;0.90;;
3953;SDS011;1991;48.682;9.030;2022-07-10T12:09:12;2.85;;;0.85;;
3953;SDS011;1991;48.682;9.030;2022-07-10T12:11:39;4.18;;;0.90;;
3953;SDS011;1991;48.682;9.030;2022-07-10T12:14:13;1.77;;;0.75;;
3953;SDS011;1991;48.682;9.030;2022-07-10T12:16:52;4.13;;;0.93;;
3953;SDS011;1991;48.682;9.030;2022-07-10T12:19:20;3.08;;;0.88;;
3953;SDS011;1991;48.682;9.030;2022-07-10T12:21:52;4.00;;;0.93;;
3953;SDS011;1991;48.682;9.030;2022-07-10T12:24:19;3.63;;;1.05;;
3953;SDS011;1991;48.682;9.030;2022-07-10T12:26:46;3.70;;;0.80;;
3953;SDS011;1991;48.682;9.030;2022-07-10T12:31:49;6.22;;;1.38;;
3953;SDS011;1991;48.682;9.030;2022-07-10T12:34:16;7.38;;;1.15;;
3953;SDS011;1991;48.682;9.030;2022-07-10T12:36:46;1.20;;;0.70;;
3953;SDS011;1991;48.682;9.030;2022-07-10T12:39:16;1.60;;;0.80;;
3953;SDS011;1991;48.682;9.030;2022-07-10T12:42:02;1.80;;;0.60;;
3953;SDS011;1991;48.682;9.030;2022-07-10T12:44:33;3.33;;;0.75;;
3953;SDS011;1991;48.682;9.030;2022-07-10T12:47:25;2.67;;;1.00;;
3953;SDS011;1991;48.682;9.030;2022-07-10T12:52:19;2.80;;;0.80;;
3953;SDS011;1991;48.682;9.030;2022-07-10T12:55:04;2.63;;;0.70;;
3953;SDS011;1991;48.682;9.030;2022-07-10T12:57:31;2.65;;;0.65;;
3953;SDS011;1991;48.682;9.030;2022-07-10T13:00:05;3.17;;;0.82;;
3953;SDS011;1991;48.682;9.030;2022-07-10T13:02:32;1.33;;;0.50;;
3953;SDS011;1991;48.682;9.030;2022-07-10T13:04:58;3.20;;;0.85;;
3953;SDS011;1991;48.682;9.030;2022-07-10T13:07:36;3.40;;;0.70;;
3953;SDS011;1991;48.682;9.030;2022-07-10T13:10:06;1.38;;;0.70;;
3953;SDS011;1991;48.682;9.030;2022-07-10T13:12:33;3.00;;;0.50;;
3953;SDS011;1991;48.682;9.030;2022-07-10T13:14:59;2.33;;;0.75;;
3953;SDS011;1991;48.682;9.030;2022-07-10T13:17:27;1.10;;;0.47;;
3953;SDS011;1991;48.682;9.030;2022-07-10T13:19:53;1.80;;;0.55;;
3953;SDS011;1991;48.682;9.030;2022-07-10T13:22:19;2.53;;;0.60;;
3953;SDS011;1991;48.682;9.030;2022-07-10T13:24:45;2.30;;;0.60;;
3953;SDS011;1991;48.682;9.030;2022-07-10T13:27:11;5.68;;;0.60;;
3953;SDS011;1991;48.682;9.030;2022-07-10T13:29:37;6.65;;;0.60;;
3953;SDS011;1991;48.682;9.030;2022-07-10T13:32:03;3.97;;;1.05;;
3953;SDS011;1991;48.682;9.030;2022-07-10T13:34:28;3.13;;;0.60;;
3953;SDS011;1991;48.682;9.030;2022-07-10T13:36:55;4.00;;;0.70;;
3953;SDS011;1991;48.682;9.030;2022-07-10T13:39:20;5.13;;;0.60;;
3953;SDS011;1991;48.682;9.030;2022-07-10T13:41:46;1.92;;;0.43;;
3953;SDS011;1991;48.682;9.030;2022-07-10T13:44:12;1.80;;;0.68;;
3953;SDS011;1991;48.682;9.030;2022-07-10T13:46:38;2.38;;;0.63;;
3953;SDS011;1991;48.682;9.030;2022-07-10T13:49:05;2.63;;;0.70;;
3953;SDS011;1991;48.682;9.030;2022-07-10T13:51:31;2.10;;;0.68;;
3953;SDS011;1991;48.682;9.030;2022-07-10T13:53:57;1.52;;;0.65;;
3953;SDS011;1991;48.682;9.030;2022-07-10T13:56:22;2.25;;;0.60;;
3953;SDS011;1991;48.682;9.030;2022-07-10T13:58:50;2.65;;;0.75;;
3953;SDS011;1991;48.682;9.030;2022-07-10T14:01:17;1.63;;;0.70;;
3953;SDS011;1991;48.682;9.030;2022-07-10T14:03:42;2.67;;;0.57;;
3953;SDS011;1991;48.682;9.030;2022-07-10T14:06:08;1.48;;;0.50;;
3953;SDS011;1991;48.682;9.030;2022-07-10T14:08:33;2.72;;;0.73;;
3953;SDS011;1991;48.682;9.030;2022-07-10T14:10:59;3.83;;;0.63;;
3953;SDS011;1991;48.682;9.030;2022-07-10T14:13:25;4.28;;;0.50;;
3953;SDS011;1991;48.682;9.030;2022-07-10T14:15:50;2.38;;;0.70;;
3953;SDS011;1991;48.682;9.030;2022-07-10T14:18:16;1.80;;;0.50;;
3953;SDS011;1991;48.682;9.030;2022-07-10T14:21:00;2.75;;;0.63;;
3953;SDS011;1991;48.682;9.030;2022-07-10T14:23:29;1.92;;;0.60;;
3953;SDS011;1991;48.682;9.030;2022-07-10T14:25:55;2.53;;;0.80;;
3953;SDS011;1991;48.682;9.030;2022-07-10T14:28:20;1.90;;;0.60;;
3953;SDS011;1991;48.682;9.030;2022-07-10T14:30:48;2.10;;;0.40;;
3953;SDS011;1991;48.682;9.030;2022-07-10T14:33:13;5.38;;;0.65;;
3953;SDS011;1991;48.682;9.030;2022-07-10T14:35:42;4.10;;;0.90;;
3953;SDS011;1991;48.682;9.030;2022-07-10T14:38:08;3.88;;;0.77;;
3953;SDS011;1991;48.682;9.030;2022-07-10T14:40:40;2.33;;;0.80;;
3953;SDS011;1991;48.682;9.030;2022-07-10T14:43:06;2.15;;;0.50;;
3953;SDS011;1991;48.682;9.030;2022-07-10T14:45:31;1.17;;;0.50;;
3953;SDS011;1991;48.682;9.030;2022-07-10T14:47:57;2.47;;;0.55;;
3953;SDS011;1991;48.682;9.030;2022-07-10T14:50:23;3.63;;;0.98;;
3953;SDS011;1991;48.682;9.030;2022-07-10T14:52:49;2.72;;;0.85;;
3953;SDS011;1991;48.682;9.030;2022-07-10T14:55:14;2.03;;;0.65;;
3953;SDS011;1991;48.682;9.030;2022-07-10T14:57:40;2.75;;;0.75;;
3953;SDS011;1991;48.682;9.030;2022-07-10T15:00:05;5.03;;;1.17;;
3953;SDS011;1991;48.682;9.030;2022-07-10T15:02:32;3.38;;;0.60;;
3953;SDS011;1991;48.682;9.030;2022-07-10T15:04:57;3.13;;;0.70;;
3953;SDS011;1991;48.682;9.030;2022-07-10T15:07:23;2.50;;;0.60;;
3953;SDS011;1991;48.682;9.030;2022-07-10T15:09:48;2.03;;;0.50;;
3953;SDS011;1991;48.682;9.030;2022-07-10T15:12:14;3.28;;;1.00;;
3953;SDS011;1991;48.682;9.030;2022-07-10T15:14:39;2.75;;;0.98;;
3953;SDS011;1991;48.682;9.030;2022-07-10T15:17:05;2.22;;;0.60;;
3953;SDS011;1991;48.682;9.030;2022-07-10T15:19:31;3.03;;;0.60;;
3953;SDS011;1991;48.682;9.030;2022-07-10T15:21:56;7.13;;;1.00;;
3953;SDS011;1991;48.682;9.030;2022-07-10T15:24:22;2.72;;;0.85;;
3953;SDS011;1991;48.682;9.030;2022-07-10T15:26:49;1.38;;;0.70;;
3953;SDS011;1991;48.682;9.030;2022-07-10T15:29:16;3.83;;;0.95;;
3953;SDS011;1991;48.682;9.030;2022-07-10T15:31:42;4.53;;;0.75;;
3953;SDS011;1991;48.682;9.030;2022-07-10T15:34:08;2.60;;;0.82;;
3953;SDS011;1991;48.682;9.030;2022-07-10T15:36:37;3.00;;;0.90;;
3953;SDS011;1991;48.682;9.030;2022-07-10T15:39:03;2.08;;;0.52;;
3953;SDS011;1991;48.682;9.030;2022-07-10T15:41:29;3.58;;;0.68;;
3953;SDS011;1991;48.682;9.030;2022-07-10T15:43:55;2.38;;;0.98;;
3953;SDS011;1991;48.682;9.030;2022-07-10T15:46:21;3.80;;;0.90;;
3953;SDS011;1991;48.682;9.030;2022-07-10T15:48:46;2.63;;;0.45;;
3953;SDS011;1991;48.682;9.030;2022-07-10T15:51:12;3.60;;;0.70;;
3953;SDS011;1991;48.682;9.030;2022-07-10T15:53:40;2.80;;;0.70;;
3953;SDS011;1991;48.682;9.030;2022-07-10T15:56:06;4.55;;;0.93;;
3953;SDS011;1991;48.682;9.030;2022-07-10T15:58:32;3.28;;;0.70;;
3953;SDS011;1991;48.682;9.030;2022-07-10T16:00:58;2.30;;;0.60;;
3953;SDS011;1991;48.682;9.030;2022-07-10T16:03:24;2.33;;;0.57;;
3953;SDS011;1991;48.682;9.030;2022-07-10T16:05:49;2.35;;;0.57;;
3953;SDS011;1991;48.682;9.030;2022-07-10T16:08:15;4.60;;;1.08;;
3953;SDS011;1991;48.682;9.030;2022-07-10T16:10:51;2.58;;;0.73;;